sensor_id;sensor_type;location;lat;lon;timestamp;temperature;humidity
28069;DHT22;15382;47.578;8.086;2023-06-04T00:00:18;18.10;99.90
28069;DHT22;15382;47.578;8.086;2023-06-04T00:10:18;18.00;99.90
28069;DHT22;15382;47.578;8.086;2023-06-04T00:20:19;17.80;99.90
28069;DHT22;15382;47.578;8.086;2023-06-04T00:30:20;17.50;99.90
28069;DHT22;15382;47.578;8.086;2023-06-04T00:40:20;17.40;99.90
28069;DHT22;15382;47.578;8.086;2023-06-04T00:50:21;17.30;99.90
28069;DHT22;15382;47.578;8.086;2023-06-04T01:00:21;17.30;99.90
28069;DHT22;15382;47.578;8.086;2023-06-04T01:10:23;17.10;99.90
28069;DHT22;15382;47.578;8.086;2023-06-04T01:20:38;16.30;99.90
28069;DHT22;15382;47.578;8.086;2023-06-04T01:30:41;15.90;99.90
28069;DHT22;15382;47.578;8.086;2023-06-04T01:40:48;15.40;99.90
28069;DHT22;15382;47.578;8.086;2023-06-04T01:50:51;15.90;99.90
28069;DHT22;15382;47.578;8.086;2023-06-04T02:00:52;16.10;99.90
28069;DHT22;15382;47.578;8.086;2023-06-04T02:10:53;16.20;99.90
28069;DHT22;15382;47.578;8.086;2023-06-04T02:20:54;16.10;99.90
28069;DHT22;15382;47.578;8.086;2023-06-04T02:30:55;15.50;99.90
28069;DHT22;15382;47.578;8.086;2023-06-04T02:40:56;15.10;99.90
28069;DHT22;15382;47.578;8.086;2023-06-04T02:50:57;15.00;99.90
28069;DHT22;15382;47.578;8.086;2023-06-04T03:00:58;15.00;99.90
28069;DHT22;15382;47.578;8.086;2023-06-04T03:10:58;15.20;99.90
28069;DHT22;15382;47.578;8.086;2023-06-04T03:20:59;15.10;99.90
28069;DHT22;15382;47.578;8.086;2023-06-04T03:31:00;14.70;99.90
28069;DHT22;15382;47.578;8.086;2023-06-04T03:41:01;14.30;99.90
28069;DHT22;15382;47.578;8.086;2023-06-04T03:51:02;14.00;99.90
28069;DHT22;15382;47.578;8.086;2023-06-04T04:01:03;14.20;99.90
28069;DHT22;15382;47.578;8.086;2023-06-04T04:11:05;13.50;99.90
28069;DHT22;15382;47.578;8.086;2023-06-04T04:21:06;13.60;99.90
28069;DHT22;15382;47.578;8.086;2023-06-04T04:31:07;13.10;99.90
28069;DHT22;15382;47.578;8.086;2023-06-04T04:41:10;12.90;99.90
28069;DHT22;15382;47.578;8.086;2023-06-04T04:51:12;13.40;99.90
28069;DHT22;15382;47.578;8.086;2023-06-04T05:01:13;13.90;99.90
28069;DHT22;15382;47.578;8.086;2023-06-04T05:11:15;14.20;99.90
28069;DHT22;15382;47.578;8.086;2023-06-04T05:21:17;14.40;99.90
28069;DHT22;15382;47.578;8.086;2023-06-04T05:31:33;14.80;99.90
28069;DHT22;15382;47.578;8.086;2023-06-04T05:41:35;15.00;99.90
28069;DHT22;15382;47.578;8.086;2023-06-04T05:51:37;15.20;99.90
28069;DHT22;15382;47.578;8.086;2023-06-04T06:01:38;15.40;99.90
28069;DHT22;15382;47.578;8.086;2023-06-04T06:11:39;16.00;99.90
28069;DHT22;15382;47.578;8.086;2023-06-04T06:21:40;16.50;99.90
28069;DHT22;15382;47.578;8.086;2023-06-04T06:31:41;16.80;99.90
28069;DHT22;15382;47.578;8.086;2023-06-04T06:41:41;17.10;99.90
28069;DHT22;15382;47.578;8.086;2023-06-04T06:51:47;17.40;99.90
28069;DHT22;15382;47.578;8.086;2023-06-04T07:01:47;18.90;99.90
28069;DHT22;15382;47.578;8.086;2023-06-04T07:11:48;19.30;99.90
28069;DHT22;15382;47.578;8.086;2023-06-04T07:21:49;19.50;99.90
28069;DHT22;15382;47.578;8.086;2023-06-04T07:31:50;19.30;99.90
28069;DHT22;15382;47.578;8.086;2023-06-04T07:41:51;20.70;99.90
28069;DHT22;15382;47.578;8.086;2023-06-04T07:51:51;21.20;99.90
28069;DHT22;15382;47.578;8.086;2023-06-04T08:01:52;21.40;99.90
28069;DHT22;15382;47.578;8.086;2023-06-04T08:11:53;21.20;99.90
28069;DHT22;15382;47.578;8.086;2023-06-04T08:21:53;22.20;99.90
28069;DHT22;15382;47.578;8.086;2023-06-04T08:31:54;22.20;99.90
28069;DHT22;15382;47.578;8.086;2023-06-04T08:41:56;22.80;99.90
28069;DHT22;15382;47.578;8.086;2023-06-04T08:52:00;24.30;99.90
28069;DHT22;15382;47.578;8.086;2023-06-04T09:02:00;23.80;99.90
28069;DHT22;15382;47.578;8.086;2023-06-04T09:12:01;22.40;99.90
28069;DHT22;15382;47.578;8.086;2023-06-04T09:22:03;22.40;99.90
28069;DHT22;15382;47.578;8.086;2023-06-04T09:32:04;23.30;99.90
28069;DHT22;15382;47.578;8.086;2023-06-04T09:42:05;24.90;99.90
28069;DHT22;15382;47.578;8.086;2023-06-04T09:52:06;25.20;99.90
28069;DHT22;15382;47.578;8.086;2023-06-04T10:02:06;25.60;99.90
28069;DHT22;15382;47.578;8.086;2023-06-04T10:12:08;25.80;99.90
28069;DHT22;15382;47.578;8.086;2023-06-04T10:22:10;25.70;99.90
28069;DHT22;15382;47.578;8.086;2023-06-04T10:32:11;26.70;99.00
28069;DHT22;15382;47.578;8.086;2023-06-04T10:42:13;26.90;98.50
28069;DHT22;15382;47.578;8.086;2023-06-04T10:52:17;25.60;99.40
28069;DHT22;15382;47.578;8.086;2023-06-04T11:02:17;25.90;99.90
28069;DHT22;15382;47.578;8.086;2023-06-04T11:12:19;27.40;96.80
28069;DHT22;15382;47.578;8.086;2023-06-04T11:22:19;28.20;96.00
28069;DHT22;15382;47.578;8.086;2023-06-04T11:32:21;28.30;94.50
28069;DHT22;15382;47.578;8.086;2023-06-04T11:42:21;28.40;93.90
28069;DHT22;15382;47.578;8.086;2023-06-04T11:52:22;28.50;90.80
28069;DHT22;15382;47.578;8.086;2023-06-04T12:02:23;28.50;90.70
28069;DHT22;15382;47.578;8.086;2023-06-04T12:12:24;29.00;90.00
28069;DHT22;15382;47.578;8.086;2023-06-04T12:22:25;29.10;86.80
28069;DHT22;15382;47.578;8.086;2023-06-04T12:32:27;28.90;84.30
28069;DHT22;15382;47.578;8.086;2023-06-04T12:42:27;29.10;87.80
28069;DHT22;15382;47.578;8.086;2023-06-04T12:52:29;29.00;84.10
28069;DHT22;15382;47.578;8.086;2023-06-04T13:02:30;29.70;84.00
28069;DHT22;15382;47.578;8.086;2023-06-04T13:12:30;29.20;87.80
28069;DHT22;15382;47.578;8.086;2023-06-04T13:22:31;29.60;85.40
28069;DHT22;15382;47.578;8.086;2023-06-04T13:32:32;29.90;84.40
28069;DHT22;15382;47.578;8.086;2023-06-04T13:42:34;29.20;84.30
28069;DHT22;15382;47.578;8.086;2023-06-04T13:52:35;30.00;84.10
28069;DHT22;15382;47.578;8.086;2023-06-04T14:02:35;30.10;81.90
28069;DHT22;15382;47.578;8.086;2023-06-04T14:12:37;29.40;85.10
28069;DHT22;15382;47.578;8.086;2023-06-04T14:22:38;30.00;84.50
28069;DHT22;15382;47.578;8.086;2023-06-04T14:32:39;29.50;81.20
28069;DHT22;15382;47.578;8.086;2023-06-04T14:42:40;29.00;81.80
28069;DHT22;15382;47.578;8.086;2023-06-04T14:52:41;29.50;80.50
28069;DHT22;15382;47.578;8.086;2023-06-04T15:02:42;28.40;81.10
28069;DHT22;15382;47.578;8.086;2023-06-04T15:12:42;27.50;81.70
28069;DHT22;15382;47.578;8.086;2023-06-04T15:22:43;27.50;83.10
28069;DHT22;15382;47.578;8.086;2023-06-04T15:32:44;27.00;83.40
28069;DHT22;15382;47.578;8.086;2023-06-04T15:42:45;26.40;84.40
28069;DHT22;15382;47.578;8.086;2023-06-04T15:52:45;26.10;86.50
28069;DHT22;15382;47.578;8.086;2023-06-04T16:02:46;23.60;92.40
28069;DHT22;15382;47.578;8.086;2023-06-04T16:12:47;21.60;99.20
28069;DHT22;15382;47.578;8.086;2023-06-04T16:22:48;21.00;99.90
28069;DHT22;15382;47.578;8.086;2023-06-04T16:32:48;20.80;99.90
28069;DHT22;15382;47.578;8.086;2023-06-04T16:42:49;20.60;99.90
28069;DHT22;15382;47.578;8.086;2023-06-04T16:52:50;20.40;99.90
28069;DHT22;15382;47.578;8.086;2023-06-04T17:02:51;20.50;99.90
28069;DHT22;15382;47.578;8.086;2023-06-04T17:12:52;20.70;99.90
28069;DHT22;15382;47.578;8.086;2023-06-04T17:22:53;20.80;99.90
28069;DHT22;15382;47.578;8.086;2023-06-04T17:32:53;21.20;99.90
28069;DHT22;15382;47.578;8.086;2023-06-04T17:42:55;21.30;99.90
28069;DHT22;15382;47.578;8.086;2023-06-04T17:52:55;20.40;99.90
28069;DHT22;15382;47.578;8.086;2023-06-04T18:02:56;20.30;99.90
28069;DHT22;15382;47.578;8.086;2023-06-04T18:12:57;20.60;99.90
28069;DHT22;15382;47.578;8.086;2023-06-04T18:22:57;21.80;99.90
28069;DHT22;15382;47.578;8.086;2023-06-04T18:32:58;21.00;99.90
28069;DHT22;15382;47.578;8.086;2023-06-04T18:42:58;20.40;99.90
28069;DHT22;15382;47.578;8.086;2023-06-04T18:52:59;20.30;99.90
28069;DHT22;15382;47.578;8.086;2023-06-04T19:03:02;19.70;99.90
28069;DHT22;15382;47.578;8.086;2023-06-04T19:13:03;19.60;99.90
28069;DHT22;15382;47.578;8.086;2023-06-04T19:23:04;19.40;99.90
28069;DHT22;15382;47.578;8.086;2023-06-04T19:33:05;19.30;99.90
28069;DHT22;15382;47.578;8.086;2023-06-04T19:43:06;18.40;99.90
28069;DHT22;15382;47.578;8.086;2023-06-04T19:53:06;18.20;99.90
28069;DHT22;15382;47.578;8.086;2023-06-04T20:03:07;18.10;99.90
28069;DHT22;15382;47.578;8.086;2023-06-04T20:13:07;17.60;99.90
28069;DHT22;15382;47.578;8.086;2023-06-04T20:23:08;17.80;99.90
28069;DHT22;15382;47.578;8.086;2023-06-04T20:33:09;17.80;99.90
28069;DHT22;15382;47.578;8.086;2023-06-04T20:43:10;17.60;99.90
28069;DHT22;15382;47.578;8.086;2023-06-04T20:53:10;17.60;99.90
28069;DHT22;15382;47.578;8.086;2023-06-04T21:03:11;17.50;99.90
28069;DHT22;15382;47.578;8.086;2023-06-04T21:13:12;17.20;99.90
28069;DHT22;15382;47.578;8.086;2023-06-04T21:23:12;17.20;99.90
28069;DHT22;15382;47.578;8.086;2023-06-04T21:33:13;17.10;99.90
28069;DHT22;15382;47.578;8.086;2023-06-04T21:43:14;17.00;99.90
28069;DHT22;15382;47.578;8.086;2023-06-04T21:53:14;17.00;99.90
28069;DHT22;15382;47.578;8.086;2023-06-04T22:03:15;16.80;99.90
28069;DHT22;15382;47.578;8.086;2023-06-04T22:13:16;16.60;99.90
28069;DHT22;15382;47.578;8.086;2023-06-04T22:23:16;16.40;99.90
28069;DHT22;15382;47.578;8.086;2023-06-04T22:33:17;15.90;99.90
28069;DHT22;15382;47.578;8.086;2023-06-04T22:43:18;15.90;99.90
28069;DHT22;15382;47.578;8.086;2023-06-04T22:53:18;15.40;99.90
28069;DHT22;15382;47.578;8.086;2023-06-04T23:03:19;15.80;99.90
28069;DHT22;15382;47.578;8.086;2023-06-04T23:13:20;15.90;99.90
28069;DHT22;15382;47.578;8.086;2023-06-04T23:23:21;15.70;99.90
28069;DHT22;15382;47.578;8.086;2023-06-04T23:33:22;15.50;99.90
28069;DHT22;15382;47.578;8.086;2023-06-04T23:43:22;15.30;99.90
28069;DHT22;15382;47.578;8.086;2023-06-04T23:53:23;14.70;99.90
